sensor_id;sensor_type;location;lat;lon;timestamp;P1;durP1;ratioP1;P2;durP2;ratioP2
50309;SDS011;36207;51.850;21.698;2022-07-29T00:02:18;7.90;;;4.80;;
50309;SDS011;36207;51.850;21.698;2022-07-29T00:04:44;8.30;;;4.40;;
50309;SDS011;36207;51.850;21.698;2022-07-29T00:07:10;9.50;;;4.60;;
50309;SDS011;36207;51.850;21.698;2022-07-29T00:09:36;7.90;;;4.50;;
50309;SDS011;36207;51.850;21.698;2022-07-29T00:12:04;7.70;;;4.20;;
50309;SDS011;36207;51.850;21.698;2022-07-29T00:14:31;8.50;;;4.40;;
50309;SDS011;36207;51.850;21.698;2022-07-29T00:16:57;13.90;;;4.80;;
50309;SDS011;36207;51.850;21.698;2022-07-29T00:19:23;7.10;;;4.60;;
50309;SDS011;36207;51.850;21.698;2022-07-29T00:21:49;7.30;;;4.50;;
50309;SDS011;36207;51.850;21.698;2022-07-29T00:24:16;7.90;;;4.60;;
50309;SDS011;36207;51.850;21.698;2022-07-29T00:26:42;7.50;;;4.60;;
50309;SDS011;36207;51.850;21.698;2022-07-29T00:29:09;7.60;;;4.60;;
50309;SDS011;36207;51.850;21.698;2022-07-29T00:31:35;10.10;;;4.70;;
50309;SDS011;36207;51.850;21.698;2022-07-29T00:34:01;7.00;;;4.40;;
50309;SDS011;36207;51.850;21.698;2022-07-29T00:36:28;10.00;;;4.40;;
50309;SDS011;36207;51.850;21.698;2022-07-29T00:38:54;9.80;;;4.60;;
50309;SDS011;36207;51.850;21.698;2022-07-29T00:41:20;6.30;;;4.30;;
50309;SDS011;36207;51.850;21.698;2022-07-29T00:43:47;9.30;;;4.40;;
50309;SDS011;36207;51.850;21.698;2022-07-29T00:46:13;8.20;;;4.60;;
50309;SDS011;36207;51.850;21.698;2022-07-29T00:48:40;8.70;;;4.20;;
50309;SDS011;36207;51.850;21.698;2022-07-29T00:51:06;11.30;;;4.70;;
50309;SDS011;36207;51.850;21.698;2022-07-29T00:53:33;8.20;;;4.40;;
50309;SDS011;36207;51.850;21.698;2022-07-29T00:56:01;6.50;;;4.00;;
50309;SDS011;36207;51.850;21.698;2022-07-29T00:58:27;9.70;;;4.30;;
50309;SDS011;36207;51.850;21.698;2022-07-29T01:00:54;7.40;;;4.50;;
50309;SDS011;36207;51.850;21.698;2022-07-29T01:03:20;7.20;;;4.50;;
50309;SDS011;36207;51.850;21.698;2022-07-29T01:05:47;8.00;;;5.10;;
50309;SDS011;36207;51.850;21.698;2022-07-29T01:08:13;7.80;;;4.60;;
50309;SDS011;36207;51.850;21.698;2022-07-29T01:10:41;9.20;;;4.40;;
50309;SDS011;36207;51.850;21.698;2022-07-29T01:13:10;8.10;;;4.60;;
50309;SDS011;36207;51.850;21.698;2022-07-29T01:15:40;8.70;;;4.10;;
50309;SDS011;36207;51.850;21.698;2022-07-29T01:18:16;8.70;;;4.90;;
50309;SDS011;36207;51.850;21.698;2022-07-29T01:26:08;10.40;;;4.30;;
50309;SDS011;36207;51.850;21.698;2022-07-29T01:29:06;8.60;;;4.40;;
50309;SDS011;36207;51.850;21.698;2022-07-29T01:39:47;14.40;;;5.20;;
50309;SDS011;36207;51.850;21.698;2022-07-29T01:42:27;13.50;;;5.00;;
50309;SDS011;36207;51.850;21.698;2022-07-29T01:45:14;7.30;;;4.50;;
50309;SDS011;36207;51.850;21.698;2022-07-29T01:47:46;6.50;;;4.60;;
50309;SDS011;36207;51.850;21.698;2022-07-29T01:50:34;6.60;;;4.30;;
50309;SDS011;36207;51.850;21.698;2022-07-29T01:53:05;10.60;;;4.70;;
50309;SDS011;36207;51.850;21.698;2022-07-29T01:55:36;7.90;;;4.30;;
50309;SDS011;36207;51.850;21.698;2022-07-29T02:00:35;11.10;;;4.70;;
50309;SDS011;36207;51.850;21.698;2022-07-29T02:03:05;8.60;;;4.60;;
50309;SDS011;36207;51.850;21.698;2022-07-29T02:05:35;13.10;;;4.90;;
50309;SDS011;36207;51.850;21.698;2022-07-29T02:08:05;9.70;;;4.40;;
50309;SDS011;36207;51.850;21.698;2022-07-29T02:10:34;8.70;;;4.60;;
50309;SDS011;36207;51.850;21.698;2022-07-29T02:13:04;8.10;;;4.20;;
50309;SDS011;36207;51.850;21.698;2022-07-29T02:15:33;7.60;;;4.50;;
50309;SDS011;36207;51.850;21.698;2022-07-29T02:18:05;8.20;;;4.70;;
50309;SDS011;36207;51.850;21.698;2022-07-29T02:20:35;8.40;;;5.10;;
50309;SDS011;36207;51.850;21.698;2022-07-29T02:23:03;9.50;;;4.60;;
50309;SDS011;36207;51.850;21.698;2022-07-29T02:25:30;9.30;;;4.50;;
50309;SDS011;36207;51.850;21.698;2022-07-29T02:27:57;8.90;;;4.70;;
50309;SDS011;36207;51.850;21.698;2022-07-29T02:30:26;9.50;;;4.70;;
50309;SDS011;36207;51.850;21.698;2022-07-29T02:32:54;8.10;;;4.30;;
50309;SDS011;36207;51.850;21.698;2022-07-29T02:35:21;7.90;;;4.30;;
50309;SDS011;36207;51.850;21.698;2022-07-29T02:37:48;7.30;;;4.20;;
50309;SDS011;36207;51.850;21.698;2022-07-29T02:40:36;6.90;;;4.30;;
50309;SDS011;36207;51.850;21.698;2022-07-29T02:43:05;6.00;;;4.00;;
50309;SDS011;36207;51.850;21.698;2022-07-29T02:45:33;8.80;;;4.40;;
50309;SDS011;36207;51.850;21.698;2022-07-29T02:48:01;6.90;;;4.40;;
50309;SDS011;36207;51.850;21.698;2022-07-29T02:50:34;6.90;;;4.20;;
50309;SDS011;36207;51.850;21.698;2022-07-29T02:53:12;8.90;;;4.80;;
50309;SDS011;36207;51.850;21.698;2022-07-29T02:55:46;10.70;;;4.80;;
50309;SDS011;36207;51.850;21.698;2022-07-29T03:01:14;9.30;;;4.40;;
50309;SDS011;36207;51.850;21.698;2022-07-29T03:03:45;10.80;;;4.20;;
50309;SDS011;36207;51.850;21.698;2022-07-29T03:06:14;6.50;;;4.40;;
50309;SDS011;36207;51.850;21.698;2022-07-29T03:08:43;7.60;;;4.10;;
50309;SDS011;36207;51.850;21.698;2022-07-29T03:11:11;7.80;;;4.70;;
50309;SDS011;36207;51.850;21.698;2022-07-29T03:13:39;7.10;;;4.60;;
50309;SDS011;36207;51.850;21.698;2022-07-29T03:16:06;8.50;;;4.40;;
50309;SDS011;36207;51.850;21.698;2022-07-29T03:18:34;12.60;;;4.80;;
50309;SDS011;36207;51.850;21.698;2022-07-29T03:21:02;9.20;;;4.70;;
50309;SDS011;36207;51.850;21.698;2022-07-29T03:23:29;9.90;;;4.90;;
50309;SDS011;36207;51.850;21.698;2022-07-29T03:25:56;10.00;;;5.10;;
50309;SDS011;36207;51.850;21.698;2022-07-29T03:28:22;8.60;;;4.50;;
50309;SDS011;36207;51.850;21.698;2022-07-29T03:30:49;8.80;;;4.40;;
50309;SDS011;36207;51.850;21.698;2022-07-29T03:33:16;9.20;;;4.60;;
50309;SDS011;36207;51.850;21.698;2022-07-29T03:35:42;11.60;;;5.10;;
50309;SDS011;36207;51.850;21.698;2022-07-29T03:38:08;15.00;;;5.20;;
50309;SDS011;36207;51.850;21.698;2022-07-29T03:40:38;8.40;;;5.00;;
50309;SDS011;36207;51.850;21.698;2022-07-29T03:43:10;14.40;;;5.40;;
50309;SDS011;36207;51.850;21.698;2022-07-29T03:45:38;8.80;;;5.00;;
50309;SDS011;36207;51.850;21.698;2022-07-29T03:48:12;8.30;;;5.20;;
50309;SDS011;36207;51.850;21.698;2022-07-29T03:50:41;8.00;;;4.70;;
50309;SDS011;36207;51.850;21.698;2022-07-29T03:53:08;6.40;;;4.50;;
50309;SDS011;36207;51.850;21.698;2022-07-29T03:55:41;9.90;;;4.50;;
50309;SDS011;36207;51.850;21.698;2022-07-29T03:58:11;9.10;;;5.20;;
50309;SDS011;36207;51.850;21.698;2022-07-29T04:00:38;7.20;;;4.50;;
50309;SDS011;36207;51.850;21.698;2022-07-29T04:03:06;7.00;;;4.60;;
50309;SDS011;36207;51.850;21.698;2022-07-29T04:05:32;6.80;;;4.30;;
50309;SDS011;36207;51.850;21.698;2022-07-29T04:07:59;7.50;;;4.50;;
50309;SDS011;36207;51.850;21.698;2022-07-29T04:10:25;7.00;;;4.40;;
50309;SDS011;36207;51.850;21.698;2022-07-29T04:12:51;7.40;;;4.50;;
50309;SDS011;36207;51.850;21.698;2022-07-29T04:15:18;8.00;;;4.80;;
50309;SDS011;36207;51.850;21.698;2022-07-29T04:17:45;10.40;;;4.80;;
50309;SDS011;36207;51.850;21.698;2022-07-29T04:20:11;9.70;;;4.30;;
50309;SDS011;36207;51.850;21.698;2022-07-29T04:22:39;8.50;;;4.30;;
50309;SDS011;36207;51.850;21.698;2022-07-29T04:25:06;10.20;;;4.50;;
50309;SDS011;36207;51.850;21.698;2022-07-29T04:27:33;6.80;;;4.20;;
50309;SDS011;36207;51.850;21.698;2022-07-29T04:30:00;6.90;;;4.50;;
50309;SDS011;36207;51.850;21.698;2022-07-29T04:32:26;8.90;;;4.00;;
50309;SDS011;36207;51.850;21.698;2022-07-29T04:34:53;9.50;;;4.00;;
50309;SDS011;36207;51.850;21.698;2022-07-29T04:37:19;7.10;;;4.30;;
50309;SDS011;36207;51.850;21.698;2022-07-29T04:39:45;5.60;;;4.20;;
50309;SDS011;36207;51.850;21.698;2022-07-29T04:42:12;10.10;;;4.20;;
50309;SDS011;36207;51.850;21.698;2022-07-29T04:44:38;10.60;;;4.30;;
50309;SDS011;36207;51.850;21.698;2022-07-29T04:47:07;11.50;;;4.30;;
50309;SDS011;36207;51.850;21.698;2022-07-29T04:49:36;5.90;;;3.90;;
50309;SDS011;36207;51.850;21.698;2022-07-29T04:52:04;6.70;;;3.80;;
50309;SDS011;36207;51.850;21.698;2022-07-29T04:54:31;7.90;;;4.00;;
50309;SDS011;36207;51.850;21.698;2022-07-29T04:56:57;5.80;;;3.80;;
50309;SDS011;36207;51.850;21.698;2022-07-29T04:59:24;7.20;;;4.30;;
50309;SDS011;36207;51.850;21.698;2022-07-29T05:01:52;6.40;;;4.00;;
50309;SDS011;36207;51.850;21.698;2022-07-29T05:04:18;8.20;;;4.30;;
50309;SDS011;36207;51.850;21.698;2022-07-29T05:06:45;7.30;;;3.90;;
50309;SDS011;36207;51.850;21.698;2022-07-29T05:09:11;4.70;;;3.40;;
50309;SDS011;36207;51.850;21.698;2022-07-29T05:11:37;6.10;;;3.80;;
50309;SDS011;36207;51.850;21.698;2022-07-29T05:14:04;6.00;;;3.50;;
50309;SDS011;36207;51.850;21.698;2022-07-29T05:16:30;5.00;;;3.50;;
50309;SDS011;36207;51.850;21.698;2022-07-29T05:18:57;5.30;;;3.30;;
50309;SDS011;36207;51.850;21.698;2022-07-29T05:21:23;8.00;;;3.50;;
50309;SDS011;36207;51.850;21.698;2022-07-29T05:23:49;5.70;;;3.10;;
50309;SDS011;36207;51.850;21.698;2022-07-29T05:26:16;5.20;;;3.20;;
50309;SDS011;36207;51.850;21.698;2022-07-29T05:28:42;7.80;;;3.10;;
50309;SDS011;36207;51.850;21.698;2022-07-29T05:31:08;6.10;;;3.00;;
50309;SDS011;36207;51.850;21.698;2022-07-29T05:33:35;3.90;;;2.70;;
50309;SDS011;36207;51.850;21.698;2022-07-29T05:36:01;5.40;;;2.60;;
50309;SDS011;36207;51.850;21.698;2022-07-29T05:38:28;5.20;;;3.00;;
50309;SDS011;36207;51.850;21.698;2022-07-29T05:40:56;4.80;;;2.60;;
50309;SDS011;36207;51.850;21.698;2022-07-29T05:43:23;3.10;;;2.50;;
50309;SDS011;36207;51.850;21.698;2022-07-29T05:45:50;3.30;;;2.40;;
50309;SDS011;36207;51.850;21.698;2022-07-29T05:48:16;5.20;;;2.60;;
50309;SDS011;36207;51.850;21.698;2022-07-29T05:50:43;5.70;;;2.40;;
50309;SDS011;36207;51.850;21.698;2022-07-29T05:53:09;4.90;;;2.20;;
50309;SDS011;36207;51.850;21.698;2022-07-29T05:55:35;4.30;;;2.00;;
50309;SDS011;36207;51.850;21.698;2022-07-29T05:58:02;4.00;;;2.30;;
50309;SDS011;36207;51.850;21.698;2022-07-29T06:00:28;6.90;;;2.00;;
50309;SDS011;36207;51.850;21.698;2022-07-29T06:02:55;4.30;;;1.90;;
50309;SDS011;36207;51.850;21.698;2022-07-29T06:05:22;4.20;;;2.00;;
50309;SDS011;36207;51.850;21.698;2022-07-29T06:07:49;4.80;;;2.10;;
50309;SDS011;36207;51.850;21.698;2022-07-29T06:10:16;5.20;;;1.80;;
50309;SDS011;36207;51.850;21.698;2022-07-29T06:12:42;4.70;;;1.90;;
50309;SDS011;36207;51.850;21.698;2022-07-29T06:15:08;3.70;;;1.60;;
50309;SDS011;36207;51.850;21.698;2022-07-29T06:17:35;6.80;;;2.10;;
50309;SDS011;36207;51.850;21.698;2022-07-29T06:20:02;4.80;;;2.20;;
50309;SDS011;36207;51.850;21.698;2022-07-29T06:22:29;8.10;;;2.20;;
50309;SDS011;36207;51.850;21.698;2022-07-29T06:24:55;4.10;;;2.10;;
50309;SDS011;36207;51.850;21.698;2022-07-29T06:27:22;3.20;;;2.00;;
50309;SDS011;36207;51.850;21.698;2022-07-29T06:29:48;2.70;;;2.00;;
50309;SDS011;36207;51.850;21.698;2022-07-29T06:32:14;4.00;;;2.40;;
50309;SDS011;36207;51.850;21.698;2022-07-29T06:34:41;3.20;;;2.10;;
50309;SDS011;36207;51.850;21.698;2022-07-29T06:37:07;4.00;;;2.30;;
50309;SDS011;36207;51.850;21.698;2022-07-29T06:39:34;4.10;;;2.10;;
50309;SDS011;36207;51.850;21.698;2022-07-29T06:42:04;4.10;;;2.00;;
50309;SDS011;36207;51.850;21.698;2022-07-29T06:44:31;4.70;;;2.10;;
50309;SDS011;36207;51.850;21.698;2022-07-29T06:47:01;3.10;;;1.90;;
50309;SDS011;36207;51.850;21.698;2022-07-29T06:49:28;3.20;;;2.20;;
50309;SDS011;36207;51.850;21.698;2022-07-29T06:51:57;6.30;;;2.10;;
50309;SDS011;36207;51.850;21.698;2022-07-29T06:54:24;5.40;;;2.00;;
50309;SDS011;36207;51.850;21.698;2022-07-29T06:56:50;6.10;;;2.30;;
50309;SDS011;36207;51.850;21.698;2022-07-29T06:59:16;3.40;;;1.90;;
50309;SDS011;36207;51.850;21.698;2022-07-29T07:01:43;3.70;;;1.60;;
50309;SDS011;36207;51.850;21.698;2022-07-29T07:04:09;4.40;;;1.90;;
50309;SDS011;36207;51.850;21.698;2022-07-29T07:06:37;3.10;;;1.80;;
50309;SDS011;36207;51.850;21.698;2022-07-29T07:09:03;2.30;;;1.50;;
50309;SDS011;36207;51.850;21.698;2022-07-29T07:11:30;7.30;;;2.20;;
50309;SDS011;36207;51.850;21.698;2022-07-29T07:13:56;8.90;;;2.20;;
50309;SDS011;36207;51.850;21.698;2022-07-29T07:16:23;8.70;;;2.40;;
50309;SDS011;36207;51.850;21.698;2022-07-29T07:18:49;2.90;;;1.60;;
50309;SDS011;36207;51.850;21.698;2022-07-29T07:21:16;3.50;;;1.70;;
50309;SDS011;36207;51.850;21.698;2022-07-29T07:23:42;5.80;;;1.80;;
50309;SDS011;36207;51.850;21.698;2022-07-29T07:26:08;3.30;;;1.70;;
50309;SDS011;36207;51.850;21.698;2022-07-29T07:28:35;2.80;;;1.70;;
50309;SDS011;36207;51.850;21.698;2022-07-29T07:31:02;4.00;;;1.90;;
50309;SDS011;36207;51.850;21.698;2022-07-29T07:33:28;5.40;;;1.80;;
50309;SDS011;36207;51.850;21.698;2022-07-29T07:35:54;9.60;;;2.00;;
50309;SDS011;36207;51.850;21.698;2022-07-29T07:38:21;3.70;;;1.60;;
50309;SDS011;36207;51.850;21.698;2022-07-29T07:40:47;2.60;;;1.60;;
50309;SDS011;36207;51.850;21.698;2022-07-29T07:43:13;4.00;;;1.80;;
50309;SDS011;36207;51.850;21.698;2022-07-29T07:45:40;5.70;;;1.90;;
50309;SDS011;36207;51.850;21.698;2022-07-29T07:48:07;5.00;;;1.60;;
50309;SDS011;36207;51.850;21.698;2022-07-29T07:50:36;4.50;;;1.60;;
50309;SDS011;36207;51.850;21.698;2022-07-29T07:53:02;3.50;;;1.70;;
50309;SDS011;36207;51.850;21.698;2022-07-29T07:55:29;4.00;;;1.80;;
50309;SDS011;36207;51.850;21.698;2022-07-29T07:57:55;4.40;;;2.10;;
50309;SDS011;36207;51.850;21.698;2022-07-29T08:00:22;4.40;;;1.80;;
50309;SDS011;36207;51.850;21.698;2022-07-29T08:02:48;5.80;;;1.60;;
50309;SDS011;36207;51.850;21.698;2022-07-29T08:05:15;7.50;;;1.90;;
50309;SDS011;36207;51.850;21.698;2022-07-29T08:07:45;3.00;;;1.50;;
50309;SDS011;36207;51.850;21.698;2022-07-29T08:10:16;3.90;;;1.90;;
50309;SDS011;36207;51.850;21.698;2022-07-29T08:13:06;4.50;;;1.80;;
50309;SDS011;36207;51.850;21.698;2022-07-29T08:15:34;3.90;;;1.80;;
50309;SDS011;36207;51.850;21.698;2022-07-29T08:18:01;3.80;;;1.90;;
50309;SDS011;36207;51.850;21.698;2022-07-29T08:20:28;3.00;;;1.60;;
50309;SDS011;36207;51.850;21.698;2022-07-29T08:22:55;2.90;;;1.50;;
50309;SDS011;36207;51.850;21.698;2022-07-29T08:25:21;4.70;;;2.00;;
50309;SDS011;36207;51.850;21.698;2022-07-29T08:27:48;6.00;;;2.10;;
50309;SDS011;36207;51.850;21.698;2022-07-29T08:30:15;5.00;;;1.50;;
50309;SDS011;36207;51.850;21.698;2022-07-29T08:32:41;6.90;;;1.60;;
50309;SDS011;36207;51.850;21.698;2022-07-29T08:35:08;4.60;;;1.80;;
50309;SDS011;36207;51.850;21.698;2022-07-29T08:37:34;3.10;;;1.50;;
50309;SDS011;36207;51.850;21.698;2022-07-29T08:40:01;4.30;;;1.60;;
50309;SDS011;36207;51.850;21.698;2022-07-29T08:42:27;3.70;;;1.70;;
50309;SDS011;36207;51.850;21.698;2022-07-29T08:44:55;3.20;;;1.30;;
50309;SDS011;36207;51.850;21.698;2022-07-29T08:47:23;4.60;;;1.50;;
50309;SDS011;36207;51.850;21.698;2022-07-29T08:49:52;3.60;;;1.70;;
50309;SDS011;36207;51.850;21.698;2022-07-29T08:52:18;2.60;;;1.50;;
50309;SDS011;36207;51.850;21.698;2022-07-29T08:54:47;4.20;;;1.60;;
50309;SDS011;36207;51.850;21.698;2022-07-29T08:57:14;3.00;;;1.40;;
50309;SDS011;36207;51.850;21.698;2022-07-29T08:59:42;8.40;;;1.30;;
50309;SDS011;36207;51.850;21.698;2022-07-29T09:02:19;3.40;;;1.50;;
50309;SDS011;36207;51.850;21.698;2022-07-29T09:04:46;7.20;;;1.60;;
50309;SDS011;36207;51.850;21.698;2022-07-29T09:07:17;5.70;;;1.50;;
50309;SDS011;36207;51.850;21.698;2022-07-29T09:09:45;2.40;;;1.40;;
50309;SDS011;36207;51.850;21.698;2022-07-29T09:12:12;4.90;;;1.20;;
50309;SDS011;36207;51.850;21.698;2022-07-29T09:14:40;4.40;;;1.50;;
50309;SDS011;36207;51.850;21.698;2022-07-29T09:17:07;6.70;;;1.80;;
50309;SDS011;36207;51.850;21.698;2022-07-29T09:19:35;2.90;;;1.20;;
50309;SDS011;36207;51.850;21.698;2022-07-29T09:22:04;3.40;;;1.50;;
50309;SDS011;36207;51.850;21.698;2022-07-29T09:27:26;3.50;;;1.40;;
50309;SDS011;36207;51.850;21.698;2022-07-29T09:29:58;3.10;;;1.50;;
50309;SDS011;36207;51.850;21.698;2022-07-29T09:32:27;3.80;;;1.60;;
50309;SDS011;36207;51.850;21.698;2022-07-29T09:37:50;3.50;;;1.10;;
50309;SDS011;36207;51.850;21.698;2022-07-29T09:40:17;5.50;;;1.50;;
50309;SDS011;36207;51.850;21.698;2022-07-29T09:42:49;5.00;;;1.50;;
50309;SDS011;36207;51.850;21.698;2022-07-29T09:45:26;5.80;;;1.30;;
50309;SDS011;36207;51.850;21.698;2022-07-29T09:47:55;4.40;;;1.30;;
50309;SDS011;36207;51.850;21.698;2022-07-29T09:50:46;5.70;;;1.50;;
50309;SDS011;36207;51.850;21.698;2022-07-29T09:55:57;3.80;;;1.50;;
50309;SDS011;36207;51.850;21.698;2022-07-29T09:58:23;3.90;;;1.60;;
50309;SDS011;36207;51.850;21.698;2022-07-29T10:00:51;6.30;;;1.40;;
50309;SDS011;36207;51.850;21.698;2022-07-29T10:03:19;2.80;;;1.00;;
50309;SDS011;36207;51.850;21.698;2022-07-29T10:05:45;5.80;;;1.50;;
50309;SDS011;36207;51.850;21.698;2022-07-29T10:08:29;2.30;;;1.10;;
50309;SDS011;36207;51.850;21.698;2022-07-29T10:11:08;4.80;;;1.40;;
50309;SDS011;36207;51.850;21.698;2022-07-29T10:13:40;5.20;;;1.30;;
50309;SDS011;36207;51.850;21.698;2022-07-29T10:16:07;2.20;;;1.30;;
50309;SDS011;36207;51.850;21.698;2022-07-29T10:18:34;7.30;;;1.30;;
50309;SDS011;36207;51.850;21.698;2022-07-29T10:21:23;6.40;;;1.80;;
50309;SDS011;36207;51.850;21.698;2022-07-29T10:23:50;4.10;;;1.30;;
50309;SDS011;36207;51.850;21.698;2022-07-29T10:26:16;5.20;;;1.10;;
50309;SDS011;36207;51.850;21.698;2022-07-29T10:28:44;3.90;;;1.10;;
50309;SDS011;36207;51.850;21.698;2022-07-29T10:31:29;3.50;;;1.30;;
50309;SDS011;36207;51.850;21.698;2022-07-29T10:34:13;4.40;;;1.50;;
50309;SDS011;36207;51.850;21.698;2022-07-29T10:42:25;5.90;;;1.20;;
50309;SDS011;36207;51.850;21.698;2022-07-29T10:44:55;1.90;;;1.00;;
50309;SDS011;36207;51.850;21.698;2022-07-29T10:47:23;2.40;;;1.00;;
50309;SDS011;36207;51.850;21.698;2022-07-29T10:49:58;6.90;;;1.30;;
50309;SDS011;36207;51.850;21.698;2022-07-29T10:55:37;3.00;;;1.10;;
50309;SDS011;36207;51.850;21.698;2022-07-29T11:00:47;2.10;;;1.10;;
50309;SDS011;36207;51.850;21.698;2022-07-29T11:06:17;3.30;;;1.50;;
50309;SDS011;36207;51.850;21.698;2022-07-29T11:08:44;1.70;;;1.00;;
50309;SDS011;36207;51.850;21.698;2022-07-29T11:13:49;2.70;;;1.10;;
50309;SDS011;36207;51.850;21.698;2022-07-29T11:16:18;4.00;;;1.10;;
50309;SDS011;36207;51.850;21.698;2022-07-29T11:21:40;2.10;;;1.10;;
50309;SDS011;36207;51.850;21.698;2022-07-29T11:24:12;3.20;;;1.40;;
50309;SDS011;36207;51.850;21.698;2022-07-29T11:26:40;3.20;;;1.20;;
50309;SDS011;36207;51.850;21.698;2022-07-29T11:29:18;3.90;;;1.00;;
50309;SDS011;36207;51.850;21.698;2022-07-29T11:31:50;2.00;;;1.10;;
50309;SDS011;36207;51.850;21.698;2022-07-29T11:34:27;4.40;;;1.20;;
50309;SDS011;36207;51.850;21.698;2022-07-29T11:39:40;2.80;;;1.30;;
50309;SDS011;36207;51.850;21.698;2022-07-29T11:44:55;4.50;;;1.10;;
50309;SDS011;36207;51.850;21.698;2022-07-29T11:47:28;1.50;;;1.00;;
50309;SDS011;36207;51.850;21.698;2022-07-29T11:49:55;2.30;;;1.10;;
50309;SDS011;36207;51.850;21.698;2022-07-29T11:52:23;1.90;;;1.00;;
50309;SDS011;36207;51.850;21.698;2022-07-29T11:54:57;2.40;;;1.10;;
50309;SDS011;36207;51.850;21.698;2022-07-29T11:57:27;4.20;;;1.10;;
50309;SDS011;36207;51.850;21.698;2022-07-29T11:59:54;5.20;;;1.30;;
50309;SDS011;36207;51.850;21.698;2022-07-29T12:02:23;4.10;;;1.30;;
50309;SDS011;36207;51.850;21.698;2022-07-29T12:04:50;2.20;;;0.90;;
50309;SDS011;36207;51.850;21.698;2022-07-29T12:07:18;2.90;;;1.00;;
50309;SDS011;36207;51.850;21.698;2022-07-29T12:09:52;2.40;;;1.20;;
50309;SDS011;36207;51.850;21.698;2022-07-29T12:12:19;3.50;;;1.00;;
50309;SDS011;36207;51.850;21.698;2022-07-29T12:14:46;2.50;;;1.60;;
50309;SDS011;36207;51.850;21.698;2022-07-29T12:17:26;2.20;;;1.30;;
50309;SDS011;36207;51.850;21.698;2022-07-29T12:19:54;1.90;;;1.10;;
50309;SDS011;36207;51.850;21.698;2022-07-29T12:22:24;5.50;;;1.00;;
50309;SDS011;36207;51.850;21.698;2022-07-29T12:25:05;3.20;;;0.90;;
50309;SDS011;36207;51.850;21.698;2022-07-29T12:27:36;4.50;;;1.20;;
50309;SDS011;36207;51.850;21.698;2022-07-29T12:30:06;1.60;;;0.90;;
50309;SDS011;36207;51.850;21.698;2022-07-29T12:32:42;1.80;;;0.80;;
50309;SDS011;36207;51.850;21.698;2022-07-29T12:35:11;2.70;;;1.00;;
50309;SDS011;36207;51.850;21.698;2022-07-29T12:37:40;2.10;;;1.10;;
50309;SDS011;36207;51.850;21.698;2022-07-29T12:40:08;1.40;;;0.90;;
50309;SDS011;36207;51.850;21.698;2022-07-29T12:42:36;3.90;;;1.20;;
50309;SDS011;36207;51.850;21.698;2022-07-29T12:45:03;3.40;;;1.00;;
50309;SDS011;36207;51.850;21.698;2022-07-29T12:47:31;1.90;;;1.00;;
50309;SDS011;36207;51.850;21.698;2022-07-29T12:50:11;7.40;;;1.10;;
50309;SDS011;36207;51.850;21.698;2022-07-29T12:52:45;1.40;;;0.90;;
50309;SDS011;36207;51.850;21.698;2022-07-29T12:55:13;2.00;;;1.40;;
50309;SDS011;36207;51.850;21.698;2022-07-29T12:57:46;6.60;;;1.30;;
50309;SDS011;36207;51.850;21.698;2022-07-29T13:00:15;3.80;;;1.30;;
50309;SDS011;36207;51.850;21.698;2022-07-29T13:02:42;3.00;;;1.10;;
50309;SDS011;36207;51.850;21.698;2022-07-29T13:05:10;3.00;;;0.90;;
50309;SDS011;36207;51.850;21.698;2022-07-29T13:07:38;3.20;;;1.10;;
50309;SDS011;36207;51.850;21.698;2022-07-29T13:10:13;1.50;;;0.90;;
50309;SDS011;36207;51.850;21.698;2022-07-29T13:15:39;3.30;;;1.10;;
50309;SDS011;36207;51.850;21.698;2022-07-29T13:21:11;1.70;;;0.80;;
50309;SDS011;36207;51.850;21.698;2022-07-29T13:23:39;1.20;;;0.80;;
50309;SDS011;36207;51.850;21.698;2022-07-29T13:26:06;4.40;;;0.80;;
50309;SDS011;36207;51.850;21.698;2022-07-29T13:28:33;1.80;;;0.90;;
50309;SDS011;36207;51.850;21.698;2022-07-29T13:31:00;3.40;;;1.10;;
50309;SDS011;36207;51.850;21.698;2022-07-29T13:33:29;2.80;;;0.90;;
50309;SDS011;36207;51.850;21.698;2022-07-29T13:35:56;2.50;;;1.00;;
50309;SDS011;36207;51.850;21.698;2022-07-29T13:38:22;3.30;;;0.90;;
50309;SDS011;36207;51.850;21.698;2022-07-29T13:40:48;2.10;;;1.00;;
50309;SDS011;36207;51.850;21.698;2022-07-29T13:43:15;2.50;;;1.50;;
50309;SDS011;36207;51.850;21.698;2022-07-29T13:45:41;4.00;;;1.00;;
50309;SDS011;36207;51.850;21.698;2022-07-29T13:48:07;3.90;;;1.10;;
50309;SDS011;36207;51.850;21.698;2022-07-29T13:50:34;3.00;;;1.00;;
50309;SDS011;36207;51.850;21.698;2022-07-29T13:53:00;4.10;;;1.20;;
50309;SDS011;36207;51.850;21.698;2022-07-29T13:55:26;2.40;;;1.20;;
50309;SDS011;36207;51.850;21.698;2022-07-29T13:57:53;5.10;;;1.20;;
50309;SDS011;36207;51.850;21.698;2022-07-29T14:00:19;1.20;;;1.10;;
50309;SDS011;36207;51.850;21.698;2022-07-29T14:02:49;1.90;;;0.90;;
50309;SDS011;36207;51.850;21.698;2022-07-29T14:05:15;1.80;;;1.00;;
50309;SDS011;36207;51.850;21.698;2022-07-29T14:07:42;3.20;;;1.20;;
50309;SDS011;36207;51.850;21.698;2022-07-29T14:10:08;4.80;;;1.10;;
50309;SDS011;36207;51.850;21.698;2022-07-29T14:12:35;7.80;;;1.10;;
50309;SDS011;36207;51.850;21.698;2022-07-29T14:15:02;3.00;;;0.80;;
50309;SDS011;36207;51.850;21.698;2022-07-29T14:17:29;6.30;;;1.10;;
50309;SDS011;36207;51.850;21.698;2022-07-29T14:19:55;4.30;;;1.00;;
50309;SDS011;36207;51.850;21.698;2022-07-29T14:22:22;2.40;;;0.90;;
50309;SDS011;36207;51.850;21.698;2022-07-29T14:24:48;2.90;;;0.80;;
50309;SDS011;36207;51.850;21.698;2022-07-29T14:27:14;2.90;;;1.10;;
50309;SDS011;36207;51.850;21.698;2022-07-29T14:29:41;3.50;;;1.00;;
50309;SDS011;36207;51.850;21.698;2022-07-29T14:32:07;3.10;;;1.00;;
50309;SDS011;36207;51.850;21.698;2022-07-29T14:34:36;1.50;;;1.10;;
50309;SDS011;36207;51.850;21.698;2022-07-29T14:37:03;4.20;;;1.30;;
50309;SDS011;36207;51.850;21.698;2022-07-29T14:39:34;5.00;;;1.10;;
50309;SDS011;36207;51.850;21.698;2022-07-29T14:42:02;7.00;;;1.30;;
50309;SDS011;36207;51.850;21.698;2022-07-29T14:44:28;1.90;;;1.00;;
50309;SDS011;36207;51.850;21.698;2022-07-29T14:46:57;4.00;;;0.90;;
50309;SDS011;36207;51.850;21.698;2022-07-29T14:49:25;4.10;;;1.10;;
50309;SDS011;36207;51.850;21.698;2022-07-29T14:51:52;6.90;;;1.30;;
50309;SDS011;36207;51.850;21.698;2022-07-29T14:54:19;1.50;;;0.90;;
50309;SDS011;36207;51.850;21.698;2022-07-29T14:56:45;2.30;;;1.10;;
50309;SDS011;36207;51.850;21.698;2022-07-29T14:59:12;2.30;;;0.90;;
50309;SDS011;36207;51.850;21.698;2022-07-29T15:01:38;4.20;;;1.00;;
50309;SDS011;36207;51.850;21.698;2022-07-29T15:04:05;6.40;;;1.10;;
50309;SDS011;36207;51.850;21.698;2022-07-29T15:06:31;4.40;;;1.00;;
50309;SDS011;36207;51.850;21.698;2022-07-29T15:08:57;3.20;;;1.00;;
50309;SDS011;36207;51.850;21.698;2022-07-29T15:11:24;7.10;;;1.20;;
50309;SDS011;36207;51.850;21.698;2022-07-29T15:13:51;1.90;;;1.10;;
50309;SDS011;36207;51.850;21.698;2022-07-29T15:16:17;6.50;;;1.10;;
50309;SDS011;36207;51.850;21.698;2022-07-29T15:18:43;2.80;;;1.10;;
50309;SDS011;36207;51.850;21.698;2022-07-29T15:21:10;3.00;;;0.90;;
50309;SDS011;36207;51.850;21.698;2022-07-29T15:23:36;2.10;;;0.90;;
50309;SDS011;36207;51.850;21.698;2022-07-29T15:26:03;3.90;;;1.00;;
50309;SDS011;36207;51.850;21.698;2022-07-29T15:28:30;4.80;;;1.10;;
50309;SDS011;36207;51.850;21.698;2022-07-29T15:30:56;6.30;;;1.10;;
50309;SDS011;36207;51.850;21.698;2022-07-29T15:33:23;1.30;;;0.90;;
50309;SDS011;36207;51.850;21.698;2022-07-29T15:35:49;2.50;;;1.40;;
50309;SDS011;36207;51.850;21.698;2022-07-29T15:38:16;3.90;;;1.10;;
50309;SDS011;36207;51.850;21.698;2022-07-29T15:40:43;2.60;;;0.90;;